createdAt,value
2023-01-19T00:00:49.682Z,6.70
2023-01-19T00:03:16.458Z,7.43
2023-01-19T00:05:44.009Z,8.32
2023-01-19T00:08:17.709Z,7.28
2023-01-19T00:10:47.582Z,7.55
2023-01-19T00:13:14.837Z,8.38
2023-01-19T00:15:41.535Z,6.70
2023-01-19T00:18:10.750Z,7.45
2023-01-19T00:20:38.149Z,6.68
2023-01-19T00:23:05.247Z,7.50
2023-01-19T00:25:32.165Z,6.85
2023-01-19T00:28:01.380Z,6.80
2023-01-19T00:30:28.608Z,6.45
2023-01-19T00:32:55.707Z,6.80
2023-01-19T00:35:22.309Z,6.65
2023-01-19T00:37:48.904Z,8.00
2023-01-19T00:40:15.781Z,6.95
2023-01-19T00:42:44.530Z,7.65
2023-01-19T00:45:14.049Z,7.25
2023-01-19T00:47:40.882Z,6.60
2023-01-19T00:50:11.872Z,6.60
2023-01-19T00:52:39.389Z,6.93
2023-01-19T00:55:08.211Z,7.05
2023-01-19T00:57:35.084Z,7.03
2023-01-19T01:00:01.967Z,6.78
2023-01-19T01:02:28.756Z,7.45
2023-01-19T01:04:56.805Z,7.00
2023-01-19T01:07:24.897Z,7.25
2023-01-19T01:09:51.646Z,7.05
2023-01-19T01:12:18.263Z,7.18
2023-01-19T01:14:44.877Z,6.80
2023-01-19T01:17:14.374Z,6.97
2023-01-19T01:19:41.696Z,6.78
2023-01-19T01:22:09.826Z,6.97
2023-01-19T01:24:36.607Z,8.77
2023-01-19T01:27:03.324Z,8.07
2023-01-19T01:29:29.917Z,8.05
2023-01-19T01:31:56.559Z,8.23
2023-01-19T01:34:23.162Z,7.57
2023-01-19T01:36:49.757Z,8.63
2023-01-19T01:39:16.339Z,7.85
2023-01-19T01:41:42.943Z,8.23
2023-01-19T01:44:50.110Z,8.88
2023-01-19T01:47:41.744Z,8.77
2023-01-19T01:50:27.560Z,8.82
2023-01-19T01:53:12.102Z,8.70
2023-01-19T01:55:45.387Z,8.75
2023-01-19T01:58:13.871Z,8.32
2023-01-19T02:00:59.921Z,8.63
2023-01-19T02:03:28.146Z,8.80
2023-01-19T02:05:59.426Z,8.82
2023-01-19T02:08:55.750Z,9.02
2023-01-19T02:11:41.211Z,8.90
2023-01-19T02:14:08.159Z,9.10
2023-01-19T02:16:37.538Z,8.48
2023-01-19T02:19:07.236Z,9.20
2023-01-19T02:21:46.787Z,8.75
2023-01-19T02:24:13.964Z,8.65
2023-01-19T02:26:44.377Z,9.27
2023-01-19T02:29:14.709Z,8.80
2023-01-19T02:31:41.693Z,9.82
2023-01-19T02:34:11.102Z,9.45
2023-01-19T02:36:54.458Z,9.43
2023-01-19T02:42:00.404Z,9.38
2023-01-19T02:44:29.217Z,9.38
2023-01-19T02:46:56.323Z,9.68
2023-01-19T02:49:23.865Z,11.00
2023-01-19T02:51:50.561Z,10.07
2023-01-19T02:54:28.914Z,9.57
2023-01-19T02:57:07.425Z,10.38
2023-01-19T03:00:01.504Z,9.60
2023-01-19T03:02:46.596Z,9.88
2023-01-19T03:05:31.295Z,10.32
2023-01-19T03:07:57.877Z,10.30
2023-01-19T03:10:42.912Z,10.57
2023-01-19T03:13:37.430Z,11.65
2023-01-19T03:16:16.324Z,9.90
2023-01-19T03:18:47.949Z,10.95
2023-01-19T03:21:19.680Z,10.20
2023-01-19T03:23:49.138Z,9.70
2023-01-19T03:26:24.016Z,9.70
2023-01-19T03:28:51.574Z,10.38
2023-01-19T03:31:22.901Z,10.57
2023-01-19T03:33:56.280Z,9.88
2023-01-19T03:36:31.234Z,10.50
2023-01-19T03:39:01.147Z,9.90
2023-01-19T03:41:30.472Z,10.15
2023-01-19T03:43:58.936Z,10.13
2023-01-19T03:46:27.304Z,9.90
2023-01-19T03:48:54.318Z,9.43
2023-01-19T03:51:22.168Z,10.15
2023-01-19T03:53:50.120Z,10.80
2023-01-19T03:56:24.879Z,10.55
2023-01-19T03:58:52.136Z,10.50
2023-01-19T04:01:23.382Z,10.30
2023-01-19T04:03:51.349Z,11.00
2023-01-19T04:06:19.013Z,10.32
2023-01-19T04:08:48.783Z,10.75
2023-01-19T04:11:15.559Z,10.45
2023-01-19T04:13:42.150Z,10.68
2023-01-19T04:16:10.656Z,11.07
2023-01-19T04:18:37.691Z,10.65
2023-01-19T04:21:07.161Z,11.70
2023-01-19T04:23:34.502Z,10.25
2023-01-19T04:26:03.941Z,10.73
2023-01-19T04:28:31.305Z,10.98
2023-01-19T04:30:58.247Z,9.88
2023-01-19T04:33:25.537Z,10.70
2023-01-19T04:35:54.406Z,10.00
2023-01-19T04:38:22.657Z,11.27
2023-01-19T04:40:50.814Z,11.48
2023-01-19T04:43:17.605Z,10.30
2023-01-19T04:45:44.886Z,10.90
2023-01-19T04:48:12.410Z,10.65
2023-01-19T04:50:39.237Z,10.75
2023-01-19T04:53:05.922Z,10.90
2023-01-19T04:55:32.517Z,9.93
2023-01-19T04:57:59.489Z,12.40
2023-01-19T05:00:26.969Z,12.35
2023-01-19T05:02:53.719Z,12.90
2023-01-19T05:05:20.403Z,12.57
2023-01-19T05:07:47.075Z,12.70
2023-01-19T05:10:13.756Z,12.73
2023-01-19T05:12:42.204Z,12.20
2023-01-19T05:15:09.726Z,12.45
2023-01-19T05:17:36.848Z,11.00
2023-01-19T05:20:04.680Z,10.70
2023-01-19T05:22:31.334Z,13.27
2023-01-19T05:24:58.423Z,12.57
2023-01-19T05:27:25.126Z,13.13
2023-01-19T05:29:52.083Z,11.43
2023-01-19T05:32:18.768Z,10.45
2023-01-19T05:34:45.383Z,11.27
2023-01-19T05:37:12.082Z,9.20
2023-01-19T05:39:38.703Z,12.20
2023-01-19T05:42:05.485Z,12.00
2023-01-19T05:44:32.109Z,11.35
2023-01-19T05:46:58.844Z,11.25
2023-01-19T05:49:25.583Z,11.98
2023-01-19T05:51:52.176Z,11.23
2023-01-19T05:54:18.829Z,12.68
2023-01-19T05:56:45.695Z,13.10
2023-01-19T05:59:13.315Z,11.70
2023-01-19T06:01:40.450Z,11.27
2023-01-19T06:04:07.541Z,12.45
2023-01-19T06:06:34.211Z,12.55
2023-01-19T06:09:00.884Z,12.70
2023-01-19T06:11:28.548Z,11.65
2023-01-19T06:13:55.153Z,11.88
2023-01-19T06:16:21.783Z,11.48
2023-01-19T06:18:48.418Z,12.48
2023-01-19T06:21:15.108Z,11.98
2023-01-19T06:23:41.707Z,11.77
2023-01-19T06:26:08.515Z,13.13
2023-01-19T06:28:35.209Z,14.18
2023-01-19T06:31:02.050Z,13.05
2023-01-19T06:33:28.890Z,12.57
2023-01-19T06:35:56.244Z,12.10
2023-01-19T06:38:23.398Z,11.02
2023-01-19T06:40:55.209Z,12.18
2023-01-19T06:43:22.139Z,10.95
2023-01-19T06:45:50.207Z,11.50
2023-01-19T06:48:17.388Z,13.07
2023-01-19T06:50:48.015Z,11.80
2023-01-19T06:53:16.794Z,12.38
2023-01-19T06:55:44.084Z,12.90
2023-01-19T06:58:11.580Z,12.27
2023-01-19T07:00:38.746Z,13.50
2023-01-19T07:03:08.364Z,13.20
2023-01-19T07:05:36.072Z,14.18
2023-01-19T07:08:03.355Z,13.82
2023-01-19T07:11:26.681Z,12.75
2023-01-19T07:13:16.644Z,13.68
2023-01-19T07:15:43.750Z,13.07
2023-01-19T07:18:10.379Z,14.88
2023-01-19T07:20:37.944Z,14.13
2023-01-19T07:23:04.801Z,13.50
2023-01-19T07:25:31.962Z,13.77
2023-01-19T07:27:59.720Z,12.65
2023-01-19T07:30:26.538Z,12.43
2023-01-19T07:32:57.122Z,12.65
2023-01-19T07:35:24.978Z,13.32
2023-01-19T07:37:51.672Z,12.98
2023-01-19T07:40:18.294Z,12.23
2023-01-19T07:42:49.267Z,9.35
2023-01-19T07:45:17.622Z,10.50
2023-01-19T07:47:45.438Z,8.75
2023-01-19T07:50:13.844Z,9.93
2023-01-19T07:52:40.982Z,8.77
2023-01-19T07:55:08.303Z,8.10
2023-01-19T07:57:36.291Z,7.80
2023-01-19T08:00:05.060Z,7.78
2023-01-19T08:02:34.044Z,8.02
2023-01-19T08:05:00.701Z,7.22
2023-01-19T08:07:27.405Z,7.63
2023-01-19T08:09:54.050Z,7.95
2023-01-19T08:12:20.640Z,7.47
2023-01-19T08:14:47.296Z,6.93
2023-01-19T08:17:14.144Z,6.90
2023-01-19T08:19:42.216Z,6.57
2023-01-19T08:22:09.091Z,5.63
2023-01-19T08:24:35.703Z,6.90
2023-01-19T08:27:03.978Z,7.05
2023-01-19T08:29:31.957Z,7.80
2023-01-19T08:32:00.337Z,6.75
2023-01-19T08:34:27.234Z,6.68
2023-01-19T08:36:54.152Z,6.43
2023-01-19T08:39:20.828Z,6.50
2023-01-19T08:41:47.436Z,6.78
2023-01-19T08:44:14.174Z,6.72
2023-01-19T08:46:40.845Z,5.07
2023-01-19T08:49:07.981Z,5.47
2023-01-19T08:51:35.016Z,4.88
2023-01-19T08:54:01.689Z,4.78
2023-01-19T08:56:28.290Z,4.85
2023-01-19T08:59:08.130Z,4.68
2023-01-19T09:01:37.436Z,4.80
2023-01-19T09:04:04.624Z,4.82
2023-01-19T09:06:31.319Z,4.68
2023-01-19T09:08:58.143Z,4.55
2023-01-19T09:11:24.762Z,5.05
2023-01-19T09:13:51.578Z,4.88
2023-01-19T09:16:18.464Z,4.25
2023-01-19T09:18:46.190Z,4.70
2023-01-19T09:21:13.885Z,4.70
2023-01-19T09:23:40.873Z,4.80
2023-01-19T09:26:07.620Z,5.13
2023-01-19T09:28:34.281Z,4.93
2023-01-19T09:31:06.686Z,4.47
2023-01-19T09:33:34.509Z,4.40
2023-01-19T09:36:02.254Z,3.83
2023-01-19T09:38:32.760Z,4.38
2023-01-19T09:41:00.455Z,4.60
2023-01-19T09:43:32.976Z,4.30
2023-01-19T09:46:03.001Z,4.55
2023-01-19T09:48:57.778Z,3.92
2023-01-19T09:51:32.934Z,6.32
2023-01-19T09:54:05.221Z,5.35
2023-01-19T09:56:32.945Z,4.53
2023-01-19T09:59:00.881Z,4.60
2023-01-19T10:01:38.465Z,4.22
2023-01-19T10:04:37.358Z,4.63
2023-01-19T10:07:09.437Z,4.50
2023-01-19T10:09:46.636Z,5.30
2023-01-19T10:12:17.918Z,6.55
2023-01-19T10:15:01.729Z,6.60
2023-01-19T10:17:42.354Z,6.07
2023-01-19T10:20:19.769Z,6.05
2023-01-19T10:22:50.699Z,7.82
2023-01-19T10:25:24.565Z,7.45
2023-01-19T10:27:51.818Z,7.35
2023-01-19T10:30:30.256Z,6.43
2023-01-19T10:32:57.050Z,6.93
2023-01-19T10:35:25.225Z,6.38
2023-01-19T10:37:58.571Z,7.15
2023-01-19T10:40:42.379Z,7.00
2023-01-19T10:43:38.348Z,5.85
2023-01-19T10:46:19.256Z,5.68
2023-01-19T10:48:49.144Z,8.77
2023-01-19T10:51:15.977Z,6.53
2023-01-19T10:54:01.300Z,7.10
2023-01-19T10:56:35.282Z,10.00
2023-01-19T10:59:05.371Z,14.82
2023-01-19T11:01:36.870Z,10.65
2023-01-19T11:04:27.423Z,10.43
2023-01-19T11:07:35.765Z,8.40
2023-01-19T11:10:11.680Z,7.75
2023-01-19T11:12:43.740Z,7.70
2023-01-19T11:15:23.426Z,7.85
2023-01-19T11:17:50.531Z,7.45
2023-01-19T11:20:47.573Z,7.18
2023-01-19T11:23:14.131Z,8.27
2023-01-19T11:25:40.973Z,8.50
2023-01-19T11:28:27.703Z,7.78
2023-01-19T11:31:01.614Z,7.30
2023-01-19T11:33:49.826Z,7.65
2023-01-19T11:36:23.288Z,6.97
2023-01-19T11:38:53.421Z,7.30
2023-01-19T11:41:29.655Z,6.88
2023-01-19T11:44:13.374Z,7.65
2023-01-19T11:46:43.392Z,7.88
2023-01-19T11:49:27.525Z,7.45
2023-01-19T11:52:20.377Z,8.52
2023-01-19T11:55:17.339Z,7.80
2023-01-19T11:57:47.479Z,7.57
2023-01-19T12:00:44.737Z,8.07
2023-01-19T12:03:34.802Z,7.78
2023-01-19T12:06:06.847Z,7.22
2023-01-19T12:08:37.519Z,8.43
2023-01-19T12:11:05.989Z,8.55
2023-01-19T12:13:34.367Z,9.05
2023-01-19T12:16:20.001Z,8.00
2023-01-19T12:19:11.024Z,8.30
2023-01-19T12:21:38.275Z,7.65
2023-01-19T12:24:18.112Z,7.85
2023-01-19T12:26:57.637Z,8.45
2023-01-19T12:29:29.283Z,7.05
2023-01-19T12:32:14.109Z,8.88
2023-01-19T12:34:41.605Z,10.15
2023-01-19T12:37:32.107Z,8.50
2023-01-19T12:40:05.635Z,12.63
2023-01-19T12:42:33.930Z,10.60
2023-01-19T12:45:17.092Z,10.60
2023-01-19T12:47:53.733Z,7.95
2023-01-19T12:50:23.514Z,7.32
2023-01-19T12:52:57.290Z,6.68
2023-01-19T12:55:31.238Z,7.03
2023-01-19T12:58:17.746Z,6.55
2023-01-19T13:00:49.731Z,9.05
2023-01-19T13:03:16.300Z,9.05
2023-01-19T13:05:42.923Z,7.60
2023-01-19T13:08:09.503Z,8.75
2023-01-19T13:11:00.073Z,6.82
2023-01-19T13:13:39.936Z,7.45
2023-01-19T13:16:18.833Z,7.13
2023-01-19T13:19:00.705Z,7.72
2023-01-19T13:21:30.492Z,8.98
2023-01-19T13:23:59.665Z,7.72
2023-01-19T13:26:32.837Z,7.60
2023-01-19T13:31:39.559Z,8.05
2023-01-19T13:34:14.084Z,10.10
2023-01-19T13:36:45.665Z,8.40
2023-01-19T13:39:28.004Z,8.00
2023-01-19T13:41:57.831Z,8.35
2023-01-19T13:44:26.669Z,8.55
2023-01-19T13:46:54.479Z,7.95
2023-01-19T13:49:31.171Z,8.30
2023-01-19T13:52:17.000Z,8.13
2023-01-19T13:55:03.088Z,7.80
2023-01-19T13:57:39.470Z,7.82
2023-01-19T14:00:06.749Z,7.75
2023-01-19T14:02:33.571Z,10.38
2023-01-19T14:05:14.355Z,6.05
2023-01-19T14:07:41.132Z,7.38
2023-01-19T14:10:14.601Z,9.88
2023-01-19T14:12:54.503Z,7.13
2023-01-19T14:15:25.497Z,7.03
2023-01-19T14:18:32.260Z,7.25
2023-01-19T14:21:03.449Z,7.15
2023-01-19T14:23:48.358Z,7.13
2023-01-19T14:26:51.388Z,6.80
2023-01-19T14:29:25.652Z,5.97
2023-01-19T14:32:28.040Z,6.47
2023-01-19T14:35:04.270Z,6.45
2023-01-19T14:37:52.124Z,6.00
2023-01-19T14:40:21.518Z,6.35
2023-01-19T14:42:53.842Z,5.70
2023-01-19T14:45:35.312Z,7.10
2023-01-19T14:48:17.800Z,7.60
2023-01-19T14:51:01.324Z,6.88
2023-01-19T14:53:29.941Z,6.47
2023-01-19T14:56:01.010Z,7.55
2023-01-19T14:58:31.564Z,7.18
2023-01-19T15:00:58.404Z,7.45
2023-01-19T15:03:38.564Z,7.38
2023-01-19T15:06:18.820Z,6.95
2023-01-19T15:08:46.269Z,8.25
2023-01-19T15:11:37.491Z,39.63
2023-01-19T15:14:04.210Z,9.88
2023-01-19T15:16:34.254Z,7.32
2023-01-19T15:19:00.976Z,6.75
2023-01-19T15:21:27.587Z,6.50
2023-01-19T15:23:55.239Z,6.38
2023-01-19T15:26:24.476Z,7.03
2023-01-19T15:28:51.525Z,6.93
2023-01-19T15:31:20.873Z,7.00
2023-01-19T15:33:47.875Z,5.93
2023-01-19T15:36:17.971Z,6.28
2023-01-19T15:38:45.683Z,7.20
2023-01-19T15:41:13.382Z,7.00
2023-01-19T15:43:40.092Z,5.90
2023-01-19T15:46:07.499Z,6.95
2023-01-19T15:48:34.238Z,6.80
2023-01-19T15:51:00.898Z,9.25
2023-01-19T15:53:27.930Z,25.67
2023-01-19T15:55:56.904Z,18.60
2023-01-19T15:58:24.378Z,11.52
2023-01-19T16:00:56.032Z,8.13
2023-01-19T16:03:25.532Z,6.90
2023-01-19T16:05:52.628Z,7.68
2023-01-19T16:08:19.372Z,6.90
2023-01-19T16:10:46.011Z,7.50
2023-01-19T16:13:12.918Z,8.40
2023-01-19T16:15:42.259Z,8.60
2023-01-19T16:18:08.909Z,8.93
2023-01-19T16:20:35.564Z,9.73
2023-01-19T16:23:14.513Z,10.00
2023-01-19T16:25:42.164Z,7.43
2023-01-19T16:28:09.205Z,6.75
2023-01-19T16:30:36.000Z,6.75
2023-01-19T16:33:02.700Z,7.95
2023-01-19T16:35:29.299Z,7.80
2023-01-19T16:37:55.950Z,6.53
2023-01-19T16:40:22.523Z,5.80
2023-01-19T16:42:49.312Z,5.93
2023-01-19T16:45:16.036Z,6.20
2023-01-19T16:47:43.092Z,5.70
2023-01-19T16:50:12.848Z,5.53
2023-01-19T16:52:39.746Z,7.03
2023-01-19T16:55:09.516Z,6.03
2023-01-19T16:57:38.979Z,7.00
2023-01-19T17:00:07.912Z,7.30
2023-01-19T17:02:34.638Z,7.30
2023-01-19T17:05:01.444Z,7.00
2023-01-19T17:07:28.771Z,6.90
2023-01-19T17:09:56.140Z,7.13
2023-01-19T17:12:22.804Z,7.30
2023-01-19T17:14:49.384Z,6.68
2023-01-19T17:17:15.978Z,6.85
2023-01-19T17:19:42.641Z,7.03
2023-01-19T17:22:09.283Z,7.00
2023-01-19T17:24:35.978Z,7.13
2023-01-19T17:27:02.585Z,6.88
2023-01-19T17:29:29.184Z,7.07
2023-01-19T17:31:55.780Z,7.70
2023-01-19T17:34:22.366Z,6.85
2023-01-19T17:36:51.406Z,6.55
2023-01-19T17:39:18.615Z,6.57
2023-01-19T17:41:45.299Z,7.72
2023-01-19T17:44:11.964Z,7.05
2023-01-19T17:46:39.181Z,7.05
2023-01-19T17:49:07.507Z,8.02
2023-01-19T17:51:35.200Z,8.32
2023-01-19T17:54:02.175Z,7.20
2023-01-19T17:56:32.326Z,7.50
2023-01-19T17:58:59.499Z,7.35
2023-01-19T18:01:31.610Z,7.45
2023-01-19T18:03:58.770Z,7.50
2023-01-19T18:06:25.429Z,6.35
2023-01-19T18:08:52.629Z,6.60
2023-01-19T18:11:21.218Z,6.50
2023-01-19T18:13:49.904Z,7.57
2023-01-19T18:16:25.949Z,7.22
2023-01-19T18:18:53.842Z,8.88
2023-01-19T18:21:21.935Z,6.68
2023-01-19T18:23:49.739Z,7.63
2023-01-19T18:26:21.317Z,7.53
2023-01-19T18:28:49.194Z,8.40
2023-01-19T18:31:19.057Z,8.25
2023-01-19T18:33:47.692Z,11.63
2023-01-19T18:36:14.640Z,8.50
2023-01-19T18:38:41.836Z,7.72
2023-01-19T18:41:14.196Z,8.85
2023-01-19T18:43:41.127Z,10.32
2023-01-19T18:46:08.033Z,8.75
2023-01-19T18:48:34.905Z,8.90
2023-01-19T18:51:09.354Z,8.35
2023-01-19T18:53:35.960Z,9.73
2023-01-19T18:56:03.383Z,10.05
2023-01-19T18:58:31.774Z,9.50
2023-01-19T19:01:00.349Z,8.43
2023-01-19T19:03:27.732Z,8.10
2023-01-19T19:05:54.506Z,9.88
2023-01-19T19:08:21.160Z,9.20
2023-01-19T19:10:47.850Z,9.40
2023-01-19T19:13:16.519Z,7.80
2023-01-19T19:15:44.465Z,8.05
2023-01-19T19:18:13.960Z,7.95
2023-01-19T19:20:42.092Z,8.43
2023-01-19T19:23:09.740Z,9.00
2023-01-19T19:25:37.415Z,8.70
2023-01-19T19:28:04.484Z,8.82
2023-01-19T19:30:32.915Z,8.07
2023-01-19T19:33:01.118Z,7.35
2023-01-19T19:35:28.253Z,7.80
2023-01-19T19:37:57.847Z,8.93
2023-01-19T19:40:28.139Z,9.00
2023-01-19T19:42:56.436Z,8.45
2023-01-19T19:45:24.987Z,7.68
2023-01-19T19:47:51.668Z,7.85
2023-01-19T19:50:19.071Z,8.98
2023-01-19T19:52:45.703Z,8.77
2023-01-19T19:55:12.740Z,7.80
2023-01-19T19:57:39.577Z,10.82
2023-01-19T20:00:06.883Z,9.05
2023-01-19T20:02:33.509Z,9.07
2023-01-19T20:05:00.210Z,7.72
2023-01-19T20:07:26.919Z,7.63
2023-01-19T20:09:55.122Z,8.85
2023-01-19T20:12:22.073Z,8.10
2023-01-19T20:14:48.797Z,7.25
2023-01-19T20:17:15.440Z,6.97
2023-01-19T20:19:43.794Z,7.53
2023-01-19T20:22:10.446Z,8.32
2023-01-19T20:24:37.029Z,8.70
2023-01-19T20:27:03.779Z,8.80
2023-01-19T20:29:30.704Z,8.85
2023-01-19T20:31:57.733Z,8.35
2023-01-19T20:34:28.230Z,9.10
2023-01-19T20:36:55.318Z,9.50
2023-01-19T20:39:23.586Z,7.28
2023-01-19T20:41:51.472Z,8.70
2023-01-19T20:44:22.348Z,8.57
2023-01-19T20:46:49.619Z,7.68
2023-01-19T20:49:16.270Z,7.93
2023-01-19T20:51:45.260Z,7.90
2023-01-19T20:54:14.271Z,8.57
2023-01-19T20:56:41.669Z,8.35
2023-01-19T20:59:09.598Z,7.80
2023-01-19T21:01:36.752Z,8.68
2023-01-19T21:04:03.803Z,9.00
2023-01-19T21:06:30.457Z,7.00
2023-01-19T21:08:57.653Z,7.47
2023-01-19T21:11:24.605Z,6.90
2023-01-19T21:13:55.788Z,7.70
2023-01-19T21:16:31.532Z,6.80
2023-01-19T21:18:58.321Z,7.28
2023-01-19T21:21:30.774Z,7.97
2023-01-19T21:24:00.050Z,7.82
2023-01-19T21:26:26.856Z,7.72
2023-01-19T21:28:53.542Z,9.00
2023-01-19T21:31:22.918Z,8.35
2023-01-19T21:33:53.516Z,6.97
2023-01-19T21:36:23.124Z,6.68
2023-01-19T21:38:51.491Z,7.30
2023-01-19T21:41:18.661Z,6.95
2023-01-19T21:43:46.242Z,7.57
2023-01-19T21:46:17.211Z,7.50
2023-01-19T21:48:44.051Z,7.28
2023-01-19T21:51:10.688Z,7.00
2023-01-19T21:53:37.592Z,6.55
2023-01-19T21:56:09.606Z,7.70
2023-01-19T21:58:36.474Z,6.25
2023-01-19T22:01:06.352Z,8.10
2023-01-19T22:03:33.220Z,8.57
2023-01-19T22:06:10.585Z,7.05
2023-01-19T22:08:37.685Z,6.13
2023-01-19T22:11:08.674Z,6.38
2023-01-19T22:13:36.204Z,6.45
2023-01-19T22:16:04.814Z,6.53
2023-01-19T22:18:31.442Z,7.05
2023-01-19T22:21:08.069Z,6.80
2023-01-19T22:23:34.953Z,5.38
2023-01-19T22:26:01.596Z,6.55
2023-01-19T22:28:28.171Z,6.43
2023-01-19T22:30:54.873Z,6.53
2023-01-19T22:33:21.489Z,5.55
2023-01-19T22:35:48.083Z,5.65
2023-01-19T22:38:14.662Z,6.32
2023-01-19T22:40:41.251Z,6.07
2023-01-19T22:43:07.831Z,6.00
2023-01-19T22:45:34.427Z,5.90
2023-01-19T22:48:01.026Z,6.45
2023-01-19T22:50:27.641Z,5.57
2023-01-19T22:52:57.875Z,5.68
2023-01-19T22:55:24.905Z,7.03
2023-01-19T22:57:51.500Z,6.80
2023-01-19T23:00:18.688Z,6.40
2023-01-19T23:02:45.295Z,5.93
2023-01-19T23:05:12.476Z,9.45
2023-01-19T23:07:39.853Z,7.20
2023-01-19T23:10:07.161Z,7.07
2023-01-19T23:12:33.769Z,6.00
2023-01-19T23:15:00.373Z,6.82
2023-01-19T23:17:27.110Z,6.53
2023-01-19T23:19:53.757Z,6.95
2023-01-19T23:22:20.363Z,6.13
2023-01-19T23:24:47.063Z,7.05
2023-01-19T23:27:13.676Z,6.47
2023-01-19T23:29:40.347Z,7.28
2023-01-19T23:32:07.083Z,6.05
2023-01-19T23:34:34.039Z,6.00
2023-01-19T23:37:00.684Z,5.97
2023-01-19T23:39:27.414Z,6.00
2023-01-19T23:41:54.072Z,5.53
2023-01-19T23:44:20.730Z,5.93
2023-01-19T23:46:47.442Z,5.97
2023-01-19T23:49:14.303Z,6.10
2023-01-19T23:51:42.131Z,5.72
2023-01-19T23:54:08.839Z,5.40
2023-01-19T23:56:37.392Z,6.50
2023-01-19T23:59:12.308Z,5.80
